Main page
METAR-TAF:

METAR-TAF

Airports :

Marion County Regional Airport

Flippin, Arkansas, United States

latitude: 36-18N, longitude: 092-28W, elevation: 1148 ft

Current weather observation

The report was made 34 minutes ago, at 12:14 UTC
Wind 9 mph from the West/Southwest
Temperature 72°F
Humidity 94%
Pressure 30.03 in. Hg
Visibility: 5 miles
Scattered clouds at a height of 500 ft
Broken clouds at a height of 3600 ft
Overcast at a height of 6500 ft
thunderstorm, heavy rain, mist

METAR: KFLP 171214Z AUTO 24008KT 5SM +TSRA BR SCT005 BKN036 OVC065 22/21 A3003 RMK AO2 LTG DSNT ALQDS P0008

Time: 07:48 (12:48 UTC)


TAF: missing

Weather observations and forecasts of more than 4000 airports (METAR and TAF reports).

The available stations are represented by yellow and red dots on the map.

Hover mouse over dot to see the name of the station.

Then click to see weather observations and forecasts.

To change the map : click on the green buttons with a black cross to zoom in, on the green button with a dash to zoom out, or on the green arrows for adjacent maps.


METAR-TAF: